Time;durP1;ratioP1;P1;durP2;ratioP2;P2;SDS_P1;SDS_P2;PMS_P1;PMS_P2;Temp;Humidity;BMP_temperature;BMP_pressure;BME280_temperature;BME280_humidity;BME280_pressure;Samples;Min_cycle;Max_cycle;Signal;HPM_P1;HPM_P2
2023/03/06 00:00:37;;;;;;;39.97;20.38;;;1.20;99.90;;;;;;5071081;28;20137;-65
2023/03/06 00:03:03;;;;;;;36.65;19.67;;;1.20;99.90;;;;;;5074262;28;20040;-65
2023/03/06 00:05:29;;;;;;;42.78;23.05;;;1.20;99.90;;;;;;5071437;28;20687;-65
2023/03/06 00:07:54;;;;;;;42.03;21.60;;;1.20;99.90;;;;;;5074309;28;20122;-64
2023/03/06 00:10:26;;;;;;;41.22;21.02;;;1.30;99.90;;;;;;5075507;28;20029;-64
2023/03/06 00:12:53;;;;;;;38.58;21.67;;;1.30;99.90;;;;;;5073783;28;20068;-64
2023/03/06 00:15:18;;;;;;;40.58;20.88;;;1.30;99.90;;;;;;5077365;28;20044;-65
2023/03/06 00:17:44;;;;;;;41.75;21.38;;;1.30;99.90;;;;;;5066502;28;20779;-65
2023/03/06 00:20:11;;;;;;;40.75;21.55;;;1.20;99.90;;;;;;5065271;28;20037;-65
2023/03/06 00:22:37;;;;;;;44.03;21.10;;;1.30;99.90;;;;;;5055948;28;20633;-64
2023/03/06 00:25:04;;;;;;;40.53;21.67;;;1.30;99.90;;;;;;5061961;28;20036;-66
2023/03/06 00:27:31;;;;;;;39.00;20.73;;;1.40;99.90;;;;;;5058474;28;20051;-65
2023/03/06 00:29:58;;;;;;;39.33;20.80;;;1.40;99.90;;;;;;5060225;28;20130;-64
2023/03/06 00:32:25;;;;;;;41.35;22.10;;;1.40;99.90;;;;;;5054746;28;20105;-66
2023/03/06 00:34:52;;;;;;;40.03;21.02;;;1.40;99.90;;;;;;5063134;28;20078;-64
2023/03/06 00:37:18;;;;;;;40.00;21.23;;;1.40;99.90;;;;;;5059002;28;20091;-66
2023/03/06 00:39:44;;;;;;;39.58;20.48;;;1.30;99.90;;;;;;5062954;28;20051;-67
2023/03/06 00:42:10;;;;;;;38.15;20.45;;;1.20;99.90;;;;;;5059056;28;20115;-65
2023/03/06 00:44:36;;;;;;;44.38;21.85;;;1.20;99.90;;;;;;5059249;28;20127;-66
2023/03/06 00:47:01;;;;;;;37.60;20.55;;;1.30;99.90;;;;;;5056056;28;20044;-67
2023/03/06 00:49:27;;;;;;;39.08;20.25;;;1.30;99.90;;;;;;5062350;28;20488;-67
2023/03/06 00:51:53;;;;;;;40.90;21.10;;;1.40;99.90;;;;;;5059526;28;20041;-65
2023/03/06 00:54:18;;;;;;;45.50;22.63;;;1.40;99.90;;;;;;5061473;28;20048;-65
2023/03/06 00:56:44;;;;;;;37.25;19.98;;;1.30;99.90;;;;;;5058926;28;20058;-65
2023/03/06 00:59:10;;;;;;;39.78;20.90;;;1.30;99.90;;;;;;5053930;28;20123;-65
2023/03/06 01:01:35;;;;;;;38.33;19.60;;;1.30;99.90;;;;;;5059600;28;20063;-66
2023/03/06 01:04:02;;;;;;;34.95;19.65;;;1.30;99.90;;;;;;5054897;28;20547;-66
2023/03/06 01:06:27;;;;;;;39.85;20.48;;;1.30;99.90;;;;;;5059506;28;20048;-66
2023/03/06 01:08:53;;;;;;;38.40;20.80;;;1.30;99.90;;;;;;5057031;28;20043;-69
2023/03/06 01:11:19;;;;;;;38.80;21.20;;;1.30;99.90;;;;;;5060981;28;20044;-67
2023/03/06 01:13:45;;;;;;;37.88;20.25;;;1.30;99.90;;;;;;5060602;28;20036;-66
2023/03/06 01:16:13;;;;;;;36.53;20.50;;;1.30;99.90;;;;;;5061609;28;20500;-65
2023/03/06 01:18:39;;;;;;;37.13;20.20;;;1.30;99.90;;;;;;5057145;28;20045;-65
2023/03/06 01:21:05;;;;;;;38.58;20.42;;;1.30;99.90;;;;;;5059510;28;20044;-65
2023/03/06 01:23:31;;;;;;;35.75;19.65;;;1.20;99.90;;;;;;5058491;28;20091;-66
2023/03/06 01:25:56;;;;;;;38.80;20.58;;;1.20;99.90;;;;;;5061141;28;20404;-66
2023/03/06 01:28:22;;;;;;;36.22;21.00;;;1.30;99.90;;;;;;5059298;28;20389;-66
2023/03/06 01:30:48;;;;;;;35.28;18.02;;;1.20;99.90;;;;;;5057876;28;20099;-64
2023/03/06 01:33:14;;;;;;;36.83;19.92;;;1.20;99.90;;;;;;5059684;28;20036;-67
2023/03/06 01:35:39;;;;;;;34.95;18.17;;;1.20;99.90;;;;;;5058639;28;20130;-63
2023/03/06 01:38:05;;;;;;;30.95;17.15;;;1.20;99.90;;;;;;5059742;28;20055;-66
2023/03/06 01:40:32;;;;;;;33.10;16.98;;;1.20;99.90;;;;;;5061440;28;20082;-66
2023/03/06 01:42:57;;;;;;;31.52;17.40;;;1.20;99.90;;;;;;5057253;28;20508;-64
2023/03/06 01:45:23;;;;;;;33.70;17.77;;;1.20;99.90;;;;;;5061117;28;20048;-65
2023/03/06 01:47:49;;;;;;;32.63;16.85;;;1.20;99.90;;;;;;5055973;28;20134;-65
2023/03/06 01:50:15;;;;;;;33.53;16.83;;;1.20;99.90;;;;;;5060861;28;20028;-65
2023/03/06 01:52:53;;;;;;;33.60;17.52;;;1.20;99.90;;;;;;5057756;28;20485;-65
2023/03/06 01:55:23;;;;;;;32.72;16.63;;;1.20;99.90;;;;;;5058333;28;20037;-66
2023/03/06 01:57:52;;;;;;;29.55;16.75;;;1.20;99.90;;;;;;5058279;28;20155;-66
2023/03/06 02:00:21;;;;;;;32.97;18.10;;;1.20;99.90;;;;;;5061158;28;20066;-63
2023/03/06 02:02:56;;;;;;;31.48;15.77;;;1.20;99.90;;;;;;5029172;28;20049;-66
2023/03/06 02:05:22;;;;;;;31.20;15.82;;;1.20;99.90;;;;;;5033515;28;20068;-64
2023/03/06 02:07:49;;;;;;;31.70;16.65;;;1.20;99.90;;;;;;5034688;28;20318;-63
2023/03/06 02:10:18;;;;;;;29.05;15.77;;;1.20;99.90;;;;;;5038494;28;20059;-66
2023/03/06 02:12:44;;;;;;;24.88;14.55;;;1.30;99.90;;;;;;5034110;28;20044;-66
2023/03/06 02:15:12;;;;;;;25.98;14.43;;;1.30;99.90;;;;;;5038455;28;20040;-64
2023/03/06 02:17:40;;;;;;;26.63;15.15;;;1.30;99.90;;;;;;5031199;28;20100;-65
2023/03/06 02:20:21;;;;;;;26.67;14.68;;;1.30;99.90;;;;;;5032014;28;20029;-64
2023/03/06 02:23:16;;;;;;;30.38;14.77;;;1.40;99.90;;;;;;5033392;28;20103;-64
2023/03/06 02:25:48;;;;;;;28.67;15.63;;;1.30;99.90;;;;;;5034361;28;20060;-64
2023/03/06 02:28:16;;;;;;;29.13;13.70;;;1.20;99.90;;;;;;5036962;28;21635;-66
2023/03/06 02:30:44;;;;;;;28.20;15.27;;;1.30;99.90;;;;;;5033012;28;20122;-65
2023/03/06 02:33:14;;;;;;;27.42;15.02;;;1.30;99.90;;;;;;5034283;28;20098;-63
2023/03/06 02:35:46;;;;;;;27.83;14.70;;;1.30;99.90;;;;;;5035152;28;20052;-64
2023/03/06 02:38:18;;;;;;;25.85;14.77;;;1.30;99.90;;;;;;5035690;28;20043;-64
2023/03/06 02:40:48;;;;;;;24.02;14.35;;;1.30;99.90;;;;;;5033960;28;20048;-65
2023/03/06 02:43:15;;;;;;;25.33;14.80;;;1.30;99.90;;;;;;5033509;28;20826;-64
2023/03/06 02:45:44;;;;;;;24.38;14.10;;;1.30;99.90;;;;;;5034540;28;20091;-66
2023/03/06 02:48:11;;;;;;;24.55;13.45;;;1.30;99.90;;;;;;5031939;28;20037;-66
2023/03/06 02:50:38;;;;;;;24.27;13.82;;;1.40;99.90;;;;;;5035515;28;20047;-67
2023/03/06 02:53:05;;;;;;;29.95;14.60;;;1.40;99.90;;;;;;5036370;28;20111;-65
2023/03/06 02:55:31;;;;;;;24.08;13.82;;;1.40;99.90;;;;;;5031650;28;20040;-66
2023/03/06 02:57:57;;;;;;;24.35;14.27;;;1.40;99.90;;;;;;5032641;28;20033;-65
2023/03/06 03:00:23;;;;;;;26.58;14.15;;;1.40;99.90;;;;;;5033072;28;20044;-64
2023/03/06 03:02:48;;;;;;;27.08;14.43;;;1.40;99.90;;;;;;5037281;28;20450;-66
2023/03/06 03:05:14;;;;;;;24.05;13.60;;;1.40;99.90;;;;;;5038943;28;20152;-66
2023/03/06 03:07:40;;;;;;;24.55;13.32;;;1.30;99.90;;;;;;5033662;28;20037;-64
2023/03/06 03:10:06;;;;;;;20.85;12.30;;;1.40;99.90;;;;;;5039018;28;20396;-65
2023/03/06 03:12:32;;;;;;;26.13;13.52;;;1.40;99.90;;;;;;5034379;28;20474;-64
2023/03/06 03:14:57;;;;;;;24.10;12.98;;;1.30;99.90;;;;;;5036068;28;20044;-67
2023/03/06 03:17:23;;;;;;;23.00;12.27;;;1.30;99.90;;;;;;5029933;28;20061;-65
2023/03/06 03:19:49;;;;;;;22.08;12.38;;;1.40;99.90;;;;;;5035048;28;20405;-66
2023/03/06 03:22:16;;;;;;;28.42;13.23;;;1.40;99.90;;;;;;5035119;28;20123;-62
2023/03/06 03:24:41;;;;;;;26.40;13.15;;;1.40;99.90;;;;;;5036794;28;20029;-64
2023/03/06 03:27:08;;;;;;;21.35;11.43;;;1.40;99.90;;;;;;5034125;28;21007;-63
2023/03/06 03:29:34;;;;;;;22.73;11.90;;;1.40;99.90;;;;;;5033820;28;20060;-63
2023/03/06 03:31:59;;;;;;;24.63;12.68;;;1.30;99.90;;;;;;5029881;28;20506;-63
2023/03/06 03:34:25;;;;;;;27.75;14.30;;;1.20;99.90;;;;;;5034782;28;20083;-65
2023/03/06 03:36:50;;;;;;;25.40;12.60;;;1.20;99.90;;;;;;5031016;28;20048;-65
2023/03/06 03:39:16;;;;;;;28.45;13.88;;;1.30;99.90;;;;;;5034431;28;20045;-65
2023/03/06 03:41:42;;;;;;;27.58;14.45;;;1.30;99.90;;;;;;5031377;28;20033;-65
2023/03/06 03:44:08;;;;;;;26.45;13.57;;;1.30;99.90;;;;;;5036054;28;20041;-66
2023/03/06 03:46:34;;;;;;;28.52;13.98;;;1.30;99.90;;;;;;5031873;28;20494;-63
2023/03/06 03:49:00;;;;;;;29.15;14.70;;;1.30;99.90;;;;;;5034560;28;20037;-66
2023/03/06 03:51:26;;;;;;;34.95;16.38;;;1.30;99.90;;;;;;5033922;28;20037;-68
2023/03/06 03:53:51;;;;;;;32.63;16.63;;;1.20;99.90;;;;;;5037066;28;20033;-65
2023/03/06 03:56:17;;;;;;;32.35;16.45;;;1.30;99.90;;;;;;5039137;28;20037;-65
2023/03/06 03:58:43;;;;;;;42.35;19.15;;;1.20;99.90;;;;;;5041154;28;20375;-65
2023/03/06 04:01:09;;;;;;;36.92;16.90;;;1.20;99.90;;;;;;5039187;28;20091;-65
2023/03/06 04:03:34;;;;;;;40.25;18.02;;;1.10;99.90;;;;;;5037748;28;20589;-64
2023/03/06 04:06:00;;;;;;;35.72;17.38;;;1.20;99.90;;;;;;5039583;28;20133;-66
2023/03/06 04:08:26;;;;;;;39.60;18.23;;;1.20;99.90;;;;;;5040253;28;20071;-65
2023/03/06 04:10:53;;;;;;;44.17;19.55;;;1.10;99.90;;;;;;5036262;28;20034;-66
2023/03/06 04:13:21;;;;;;;43.92;20.40;;;1.20;99.90;;;;;;5037456;28;20033;-67
2023/03/06 04:15:48;;;;;;;38.28;19.42;;;1.10;99.90;;;;;;5038430;28;20037;-63
2023/03/06 04:18:15;;;;;;;40.97;19.85;;;1.20;99.90;;;;;;5038043;28;20441;-66
2023/03/06 04:20:44;;;;;;;42.85;19.88;;;1.10;99.90;;;;;;5038679;28;20041;-66
2023/03/06 04:23:10;;;;;;;45.35;20.10;;;1.10;99.90;;;;;;5034500;28;20798;-68
2023/03/06 04:25:36;;;;;;;42.78;20.20;;;1.00;99.90;;;;;;5038784;28;20155;-65
2023/03/06 04:28:02;;;;;;;38.72;18.98;;;1.10;99.90;;;;;;5036245;28;20133;-64
2023/03/06 04:30:28;;;;;;;46.47;21.00;;;1.10;99.90;;;;;;5037937;28;20052;-65
2023/03/06 04:32:53;;;;;;;37.72;19.13;;;1.10;99.90;;;;;;5037235;28;20036;-66
2023/03/06 04:35:19;;;;;;;35.65;18.27;;;1.10;99.90;;;;;;5039257;28;20046;-65
2023/03/06 04:37:45;;;;;;;43.95;18.70;;;1.10;99.90;;;;;;5035612;28;20048;-65
2023/03/06 04:40:21;;;;;;;34.22;17.48;;;1.10;99.90;;;;;;5039011;28;20045;-65
2023/03/06 04:42:47;;;;;;;37.88;18.27;;;1.10;99.90;;;;;;5032385;28;20122;-64
2023/03/06 04:45:14;;;;;;;33.70;16.33;;;1.20;99.90;;;;;;5037143;28;20034;-64
2023/03/06 04:47:40;;;;;;;31.60;16.13;;;1.20;99.90;;;;;;5034739;28;20053;-63
2023/03/06 04:50:07;;;;;;;37.15;17.10;;;1.20;99.90;;;;;;5038049;28;20041;-65
2023/03/06 04:52:32;;;;;;;37.97;17.58;;;1.20;99.90;;;;;;5034163;28;20048;-64
2023/03/06 04:54:58;;;;;;;36.25;17.10;;;1.20;99.90;;;;;;5035792;28;20033;-64
2023/03/06 04:57:23;;;;;;;32.33;16.35;;;1.20;99.90;;;;;;5034447;28;20041;-65
2023/03/06 04:59:50;;;;;;;32.17;16.75;;;1.20;99.90;;;;;;5040768;28;20037;-63
2023/03/06 05:02:17;;;;;;;32.47;16.52;;;1.30;99.90;;;;;;5035608;28;20519;-65
2023/03/06 05:04:43;;;;;;;30.83;16.08;;;1.30;99.90;;;;;;5040559;28;20052;-65
2023/03/06 05:07:09;;;;;;;28.55;14.75;;;1.30;99.90;;;;;;5037484;28;20049;-65
2023/03/06 05:09:35;;;;;;;26.38;14.60;;;1.20;99.90;;;;;;5037654;28;20049;-65
2023/03/06 05:12:01;;;;;;;25.58;13.18;;;1.30;99.90;;;;;;5035297;28;20041;-65
2023/03/06 05:14:30;;;;;;;23.65;13.10;;;1.30;99.90;;;;;;5035805;28;20386;-64
2023/03/06 05:16:56;;;;;;;24.08;13.13;;;1.20;99.90;;;;;;5036765;28;20700;-64
2023/03/06 05:19:21;;;;;;;23.50;13.18;;;1.20;99.90;;;;;;5032065;28;20053;-65
2023/03/06 05:21:47;;;;;;;23.55;13.43;;;1.20;99.90;;;;;;5035761;28;20033;-67
2023/03/06 05:24:13;;;;;;;23.58;13.05;;;1.20;99.90;;;;;;5038694;28;20037;-66
2023/03/06 05:26:38;;;;;;;25.10;13.07;;;1.20;99.90;;;;;;5033992;28;20052;-65
2023/03/06 05:29:04;;;;;;;26.27;13.32;;;1.20;99.90;;;;;;5032314;28;20064;-65
2023/03/06 05:31:30;;;;;;;27.80;14.88;;;1.20;99.90;;;;;;5036240;28;20072;-66
2023/03/06 05:33:57;;;;;;;25.08;12.52;;;1.20;99.90;;;;;;5035052;28;20171;-66
2023/03/06 05:36:23;;;;;;;19.98;11.57;;;1.10;99.90;;;;;;5038787;28;20049;-64
2023/03/06 05:38:48;;;;;;;20.95;11.30;;;1.10;99.90;;;;;;5036280;28;20037;-65
2023/03/06 05:41:14;;;;;;;20.60;10.95;;;1.10;99.90;;;;;;5029346;28;20029;-64
2023/03/06 05:43:40;;;;;;;19.67;11.25;;;1.00;99.90;;;;;;5035912;28;20044;-66
2023/03/06 05:46:06;;;;;;;18.40;10.55;;;1.00;99.90;;;;;;5035247;28;20034;-65
2023/03/06 05:48:33;;;;;;;19.90;11.40;;;1.00;99.90;;;;;;5034451;28;20068;-65
2023/03/06 05:51:00;;;;;;;20.00;11.10;;;1.10;99.90;;;;;;5035042;28;20059;-66
2023/03/06 05:53:26;;;;;;;23.20;12.30;;;1.10;99.90;;;;;;5031719;28;20042;-65
2023/03/06 05:56:00;;;;;;;22.20;11.07;;;1.10;99.90;;;;;;5035959;28;20591;-65
2023/03/06 05:58:26;;;;;;;23.40;12.52;;;1.10;99.90;;;;;;5029915;28;20546;-66
2023/03/06 06:00:52;;;;;;;21.17;11.23;;;1.10;99.90;;;;;;5034567;28;20036;-64
2023/03/06 06:03:18;;;;;;;20.88;10.95;;;1.20;99.90;;;;;;5035555;28;20569;-64
2023/03/06 06:05:44;;;;;;;22.60;11.77;;;1.10;99.90;;;;;;5036374;28;20064;-65
2023/03/06 06:08:09;;;;;;;21.08;11.20;;;1.10;99.90;;;;;;5038759;28;20065;-65
2023/03/06 06:10:35;;;;;;;22.67;11.38;;;1.10;99.90;;;;;;5033104;28;20432;-66
2023/03/06 06:13:01;;;;;;;21.80;11.65;;;0.90;99.90;;;;;;5035801;28;20029;-67
2023/03/06 06:15:27;;;;;;;22.05;11.20;;;0.90;99.90;;;;;;5032838;28;20041;-64
2023/03/06 06:17:54;;;;;;;25.17;12.55;;;0.90;99.90;;;;;;5031384;28;20068;-65
2023/03/06 06:20:19;;;;;;;26.10;13.60;;;0.90;99.90;;;;;;5040665;28;20032;-66
2023/03/06 06:22:45;;;;;;;25.95;12.95;;;0.90;99.90;;;;;;5033018;28;20044;-66
2023/03/06 06:25:11;;;;;;;29.48;14.60;;;0.90;99.90;;;;;;5034724;28;20041;-66
2023/03/06 06:27:36;;;;;;;24.85;12.40;;;0.90;99.90;;;;;;5031982;28;20092;-66
2023/03/06 06:30:04;;;;;;;27.90;13.40;;;0.90;99.90;;;;;;5035455;28;20076;-67
2023/03/06 06:32:30;;;;;;;28.20;14.88;;;1.00;99.90;;;;;;5031204;28;20065;-67
2023/03/06 06:34:55;;;;;;;33.13;16.88;;;1.00;99.90;;;;;;5035076;28;20077;-64
2023/03/06 06:37:21;;;;;;;32.35;16.40;;;0.90;99.90;;;;;;5036111;28;20786;-64
2023/03/06 06:39:47;;;;;;;27.52;14.88;;;0.90;99.90;;;;;;5040087;28;20041;-64
2023/03/06 06:42:12;;;;;;;30.20;15.75;;;0.90;99.90;;;;;;5035411;28;20040;-65
2023/03/06 06:44:38;;;;;;;32.53;17.15;;;0.90;99.90;;;;;;5032185;28;20099;-64
2023/03/06 06:47:05;;;;;;;32.75;17.23;;;0.90;99.90;;;;;;5032081;28;20044;-64
2023/03/06 06:49:31;;;;;;;32.33;16.10;;;0.90;99.90;;;;;;5035273;28;20130;-66
2023/03/06 06:51:56;;;;;;;35.50;17.92;;;0.90;99.90;;;;;;5034735;28;20401;-63
2023/03/06 06:54:22;;;;;;;39.10;18.58;;;0.90;99.90;;;;;;5036062;28;20037;-63
2023/03/06 06:56:48;;;;;;;36.65;18.00;;;1.00;99.90;;;;;;5033293;28;20041;-64
2023/03/06 06:59:13;;;;;;;39.75;19.90;;;1.00;99.90;;;;;;5032085;28;20048;-66
2023/03/06 07:01:39;;;;;;;31.42;16.98;;;1.00;99.90;;;;;;5034869;28;20048;-66
2023/03/06 07:04:04;;;;;;;36.67;18.23;;;1.00;99.90;;;;;;5037665;28;20047;-63
2023/03/06 07:06:30;;;;;;;34.50;17.73;;;1.10;99.90;;;;;;5036953;28;20360;-65
2023/03/06 07:08:56;;;;;;;38.80;18.85;;;1.00;99.90;;;;;;5035061;28;20068;-66
2023/03/06 07:11:22;;;;;;;36.58;18.45;;;1.00;99.90;;;;;;5035772;28;20041;-65
2023/03/06 07:13:47;;;;;;;36.53;18.23;;;1.00;99.90;;;;;;5035849;28;20040;-66
2023/03/06 07:16:13;;;;;;;35.28;17.60;;;1.10;99.90;;;;;;5040056;28;20628;-65
2023/03/06 07:18:39;;;;;;;33.28;16.48;;;0.90;99.90;;;;;;5038052;28;20037;-66
2023/03/06 07:21:05;;;;;;;31.67;15.65;;;1.00;99.90;;;;;;5041096;28;20043;-66
2023/03/06 07:23:31;;;;;;;27.80;15.15;;;0.90;99.90;;;;;;5035528;28;20048;-65
2023/03/06 07:25:57;;;;;;;27.42;14.68;;;0.90;99.90;;;;;;5039409;28;20047;-66
2023/03/06 07:28:22;;;;;;;30.52;15.00;;;0.90;99.90;;;;;;5035873;28;20049;-64
2023/03/06 07:30:48;;;;;;;30.52;15.65;;;1.00;99.90;;;;;;5042092;28;20038;-64
2023/03/06 07:33:14;;;;;;;27.52;13.77;;;1.10;99.90;;;;;;5039609;28;20107;-66
2023/03/06 07:35:41;;;;;;;25.85;13.82;;;1.10;99.90;;;;;;5043372;28;20033;-66
2023/03/06 07:38:06;;;;;;;28.27;14.68;;;1.10;99.90;;;;;;5036486;28;20029;-66
2023/03/06 07:40:32;;;;;;;26.58;15.10;;;1.20;99.90;;;;;;5039598;28;20485;-66
2023/03/06 07:42:58;;;;;;;27.52;14.73;;;1.20;99.90;;;;;;5042391;28;20044;-65
2023/03/06 07:45:23;;;;;;;30.10;15.90;;;1.20;99.90;;;;;;5041940;28;20108;-65
2023/03/06 07:47:50;;;;;;;29.25;14.63;;;1.30;99.90;;;;;;5036711;28;20550;-65
2023/03/06 07:50:17;;;;;;;35.72;16.45;;;1.40;99.90;;;;;;5043288;28;20555;-66
2023/03/06 07:52:42;;;;;;;30.15;14.60;;;1.40;99.90;;;;;;5036725;28;20029;-64
2023/03/06 07:55:09;;;;;;;29.02;16.00;;;1.40;99.90;;;;;;5043548;28;20041;-66
2023/03/06 07:57:36;;;;;;;31.05;16.20;;;1.50;99.90;;;;;;5039122;28;20049;-65
2023/03/06 08:00:03;;;;;;;31.98;16.25;;;1.50;99.90;;;;;;5043409;28;20045;-65
2023/03/06 08:02:29;;;;;;;27.90;15.80;;;1.60;99.90;;;;;;5038440;28;20041;-66
2023/03/06 08:04:55;;;;;;;28.83;15.32;;;1.60;99.90;;;;;;5043379;28;20421;-66
2023/03/06 08:07:21;;;;;;;31.90;16.98;;;1.70;99.90;;;;;;5036226;28;20052;-66
2023/03/06 08:09:47;;;;;;;26.92;15.15;;;1.80;99.90;;;;;;5045784;28;20068;-64
2023/03/06 08:12:13;;;;;;;32.92;17.00;;;1.70;99.90;;;;;;5039614;28;20029;-67
2023/03/06 08:14:39;;;;;;;27.08;14.80;;;1.80;99.90;;;;;;5041131;28;20051;-65
2023/03/06 08:17:05;;;;;;;31.48;15.60;;;1.90;99.90;;;;;;5038893;28;20034;-66
2023/03/06 08:19:30;;;;;;;29.48;16.17;;;1.90;99.90;;;;;;5041729;28;20420;-66
2023/03/06 08:21:56;;;;;;;28.83;15.23;;;1.80;99.90;;;;;;5038854;28;20064;-66
2023/03/06 08:24:21;;;;;;;28.83;15.50;;;1.80;99.90;;;;;;5043313;28;20041;-66
2023/03/06 08:26:47;;;;;;;26.17;14.40;;;1.80;99.90;;;;;;5044662;28;20102;-66
2023/03/06 08:29:14;;;;;;;25.13;13.30;;;1.80;99.90;;;;;;5039661;28;20064;-65
2023/03/06 08:31:44;;;;;;;28.10;15.27;;;1.70;99.90;;;;;;5039172;28;20033;-65
2023/03/06 08:34:13;;;;;;;29.70;15.32;;;1.70;99.90;;;;;;5036569;28;20111;-66
2023/03/06 08:36:39;;;;;;;26.52;13.90;;;1.80;99.90;;;;;;5041338;28;20033;-66
2023/03/06 08:39:05;;;;;;;27.00;13.82;;;2.00;99.90;;;;;;5041220;28;20076;-67
2023/03/06 08:41:31;;;;;;;28.23;13.82;;;2.10;99.90;;;;;;5041676;28;20440;-65
2023/03/06 08:43:57;;;;;;;26.52;13.55;;;2.20;99.90;;;;;;5043054;28;20913;-65
2023/03/06 08:46:25;;;;;;;20.63;12.75;;;2.10;99.90;;;;;;5039467;28;20056;-66
2023/03/06 08:48:51;;;;;;;23.13;11.25;;;2.00;99.90;;;;;;5042413;28;20798;-66
2023/03/06 08:51:17;;;;;;;19.05;11.10;;;2.00;99.90;;;;;;5042035;28;20037;-66
2023/03/06 08:53:43;;;;;;;20.27;11.20;;;2.20;99.90;;;;;;5037224;28;20045;-66
2023/03/06 08:56:23;;;;;;;18.60;10.05;;;2.50;99.90;;;;;;5040410;28;20045;-64
2023/03/06 08:58:49;;;;;;;14.15;8.82;;;2.60;99.90;;;;;;5039241;28;20047;-67
2023/03/06 09:01:18;;;;;;;18.83;11.13;;;2.80;99.90;;;;;;5043544;28;20049;-66
2023/03/06 09:03:45;;;;;;;17.48;9.93;;;2.70;99.90;;;;;;5039410;28;20555;-65
2023/03/06 09:06:11;;;;;;;18.42;10.30;;;2.70;99.90;;;;;;5039612;28;20930;-64
2023/03/06 09:08:37;;;;;;;17.50;8.20;;;2.90;99.90;;;;;;5040409;28;20465;-64
2023/03/06 09:11:03;;;;;;;18.73;9.93;;;2.90;99.90;;;;;;5042546;28;20036;-66
2023/03/06 09:13:28;;;;;;;15.15;8.77;;;2.90;99.90;;;;;;5041649;28;20033;-64
2023/03/06 09:15:54;;;;;;;17.10;9.27;;;3.10;99.90;;;;;;5042927;28;20038;-66
2023/03/06 09:18:19;;;;;;;17.23;10.05;;;3.00;99.90;;;;;;5040850;28;20032;-66
2023/03/06 09:20:45;;;;;;;16.63;10.18;;;3.10;99.90;;;;;;5040529;28;20041;-68
2023/03/06 09:23:11;;;;;;;17.77;9.70;;;2.80;99.90;;;;;;5040297;28;20041;-67
2023/03/06 09:25:36;;;;;;;17.90;10.82;;;2.60;99.90;;;;;;5041402;28;20378;-66
2023/03/06 09:28:02;;;;;;;17.08;9.90;;;2.50;99.90;;;;;;5037776;28;20035;-64
2023/03/06 09:30:27;;;;;;;14.68;8.45;;;2.30;99.90;;;;;;5041531;28;20044;-66
2023/03/06 09:32:53;;;;;;;18.85;10.10;;;2.30;99.90;;;;;;5036321;28;20192;-67
2023/03/06 09:35:19;;;;;;;17.38;9.05;;;2.10;99.90;;;;;;5042069;28;20727;-65
2023/03/06 09:37:44;;;;;;;16.65;9.65;;;2.20;99.90;;;;;;5037123;28;20040;-65
2023/03/06 09:40:16;;;;;;;17.58;9.25;;;2.30;99.90;;;;;;5042371;28;20045;-65
2023/03/06 09:42:42;;;;;;;21.88;10.63;;;2.30;99.90;;;;;;5038025;28;20045;-65
2023/03/06 09:45:10;;;;;;;21.13;10.10;;;2.30;99.90;;;;;;5040839;28;20044;-66
2023/03/06 09:47:45;;;;;;;20.35;9.80;;;2.20;99.90;;;;;;5034532;28;20519;-67
2023/03/06 09:50:21;;;;;;;15.48;9.23;;;2.30;99.90;;;;;;5037631;28;20147;-65
2023/03/06 09:52:53;;;;;;;;;;;2.30;99.90;;;;;;5037440;28;20037;-65
2023/03/06 09:55:21;;;;;;;15.40;8.60;;;2.30;99.90;;;;;;5039559;28;19924;-65
2023/03/06 09:58:13;;;;;;;18.48;9.07;;;2.30;99.90;;;;;;5038693;28;20048;-66
2023/03/06 10:00:46;;;;;;;15.00;8.57;;;2.20;99.90;;;;;;5035467;28;20085;-67
2023/03/06 10:03:19;;;;;;;18.98;9.45;;;2.10;99.90;;;;;;5038881;28;20060;-66
2023/03/06 10:05:52;;;;;;;15.25;9.23;;;2.20;99.90;;;;;;5040263;28;20090;-67
2023/03/06 10:08:27;;;;;;;16.45;9.00;;;2.30;99.90;;;;;;5040936;28;20036;-65
2023/03/06 10:11:02;;;;;;;20.92;10.30;;;2.20;99.90;;;;;;5040064;28;20041;-65
2023/03/06 10:13:52;;;;;;;15.75;9.25;;;2.20;99.90;;;;;;5037358;28;20139;-66
2023/03/06 10:16:24;;;;;;;18.80;10.02;;;2.30;99.90;;;;;;5039450;28;20041;-66
2023/03/06 10:18:50;;;;;;;17.35;8.95;;;2.40;99.90;;;;;;5038475;28;20095;-66
2023/03/06 10:21:36;;;;;;;17.05;10.05;;;2.50;99.90;;;;;;5040458;28;20516;-69
2023/03/06 10:24:34;;;;;;;16.45;8.75;;;2.70;99.90;;;;;;5041544;28;20049;-65
2023/03/06 10:27:32;;;;;;;15.10;8.07;;;2.90;99.90;;;;;;5036389;28;20429;-67
2023/03/06 10:30:13;;;;;;;20.13;8.07;;;3.20;99.90;;;;;;5040675;28;20040;-65
2023/03/06 10:32:45;;;;;;;12.23;7.55;;;3.40;99.90;;;;;;5055171;28;20090;-67
2023/03/06 10:35:16;;;;;;;14.77;8.00;;;3.50;99.90;;;;;;5059246;28;20517;-66
2023/03/06 10:37:41;;;;;;;16.00;6.55;;;3.50;99.90;;;;;;5049967;28;20133;-68
2023/03/06 10:40:20;;;;;;;12.95;7.35;;;3.70;99.90;;;;;;5059674;28;20067;-64
2023/03/06 10:42:46;;;;;;;17.50;6.93;;;3.80;99.90;;;;;;5051435;28;20404;-65
2023/03/06 10:45:14;;;;;;;12.30;7.22;;;3.70;99.90;;;;;;5058078;28;20032;-65
2023/03/06 10:47:40;;;;;;;10.20;6.22;;;3.70;99.90;;;;;;5053920;28;20131;-67
2023/03/06 10:50:27;;;;;;;11.05;6.22;;;3.70;99.90;;;;;;5053823;28;20036;-67
2023/03/06 10:53:04;;;;;;;11.52;5.95;;;3.60;99.90;;;;;;5056244;28;20039;-66
2023/03/06 10:55:32;;;;;;;12.73;6.45;;;3.70;99.90;;;;;;5053929;28;20044;-66
2023/03/06 10:58:16;;;;;;;13.13;6.15;;;3.70;99.90;;;;;;5055660;28;20048;-66
2023/03/06 11:00:42;;;;;;;11.85;6.90;;;3.70;99.90;;;;;;5050082;28;20115;-65
2023/03/06 11:03:20;;;;;;;12.95;7.63;;;3.50;99.90;;;;;;5050317;28;20173;-68
2023/03/06 11:06:06;;;;;;;12.98;7.60;;;3.30;99.90;;;;;;5057240;28;20110;-66
2023/03/06 11:08:32;;;;;;;12.43;6.75;;;3.10;99.90;;;;;;5052353;28;20488;-67
2023/03/06 11:11:06;;;;;;;13.55;7.25;;;3.10;99.90;;;;;;5056277;28;20632;-65
2023/03/06 11:13:35;;;;;;;12.13;7.10;;;2.90;99.90;;;;;;5055933;28;20067;-66
2023/03/06 11:16:14;;;;;;;14.95;7.35;;;2.80;99.90;;;;;;5056630;28;20052;-66
2023/03/06 11:18:53;;;;;;;12.95;7.50;;;2.70;99.90;;;;;;5054248;28;20480;-63
2023/03/06 11:21:30;;;;;;;16.30;6.85;;;2.60;99.90;;;;;;5057669;28;20447;-66
2023/03/06 11:24:06;;;;;;;10.35;6.38;;;2.60;99.90;;;;;;5054158;28;20036;-65
2023/03/06 11:26:40;;;;;;;12.52;7.22;;;2.60;99.90;;;;;;5052852;28;20049;-65
2023/03/06 11:29:35;;;;;;;14.10;7.45;;;2.60;99.90;;;;;;5054642;28;20045;-65
2023/03/06 11:32:10;;;;;;;11.77;7.45;;;2.50;99.90;;;;;;5052119;28;20649;-66
2023/03/06 11:34:57;;;;;;;17.98;9.82;;;2.50;99.90;;;;;;5056652;28;20059;-63
2023/03/06 11:37:56;;;;;;;13.38;8.15;;;2.50;99.90;;;;;;5048934;28;20045;-65
2023/03/06 11:40:35;;;;;;;16.35;8.80;;;2.50;99.90;;;;;;5036595;28;20181;-65
2023/03/06 11:43:04;;;;;;;13.48;8.35;;;2.50;99.90;;;;;;5056850;28;21641;-65
2023/03/06 11:45:41;;;;;;;15.13;8.35;;;2.50;99.90;;;;;;5054967;28;20515;-65
2023/03/06 11:48:13;;;;;;;16.13;9.60;;;2.60;99.90;;;;;;5054809;28;20051;-63
2023/03/06 11:50:45;;;;;;;15.10;8.80;;;2.50;99.90;;;;;;5055945;28;20044;-64
2023/03/06 11:53:19;;;;;;;16.23;9.70;;;2.50;99.90;;;;;;5055874;28;20037;-64
2023/03/06 11:56:17;;;;;;;18.60;10.00;;;2.50;99.90;;;;;;5058421;28;20037;-65
2023/03/06 11:58:49;;;;;;;19.17;9.80;;;2.40;99.90;;;;;;5045147;28;20081;-66
2023/03/06 12:01:36;;;;;;;16.75;10.05;;;2.20;99.90;;;;;;5052315;28;20057;-64
2023/03/06 12:04:35;;;;;;;18.42;10.65;;;2.20;99.90;;;;;;5057730;28;20037;-67
2023/03/06 12:07:10;;;;;;;22.05;10.30;;;2.10;99.90;;;;;;5056941;28;20044;-66
2023/03/06 12:09:45;;;;;;;20.88;10.60;;;2.10;99.90;;;;;;5059171;28;20071;-65
2023/03/06 12:12:36;;;;;;;18.80;10.13;;;2.10;99.90;;;;;;5049808;28;20041;-65
2023/03/06 12:15:20;;;;;;;19.13;10.63;;;2.20;99.90;;;;;;5062963;28;20496;-65
2023/03/06 12:18:06;;;;;;;17.85;10.60;;;2.30;99.90;;;;;;5058328;28;20075;-66
2023/03/06 12:20:50;;;;;;;21.60;11.07;;;2.40;99.90;;;;;;5057291;28;21152;-65
2023/03/06 12:23:35;;;;;;;22.65;11.30;;;2.50;99.90;;;;;;5058362;28;20052;-66
2023/03/06 12:26:29;;;;;;;20.08;11.25;;;2.60;99.90;;;;;;5058782;28;20040;-66
2023/03/06 12:29:08;;;;;;;20.35;11.35;;;2.60;99.90;;;;;;5052676;28;20040;-66
2023/03/06 12:32:13;;;;;;;20.67;10.55;;;2.80;99.90;;;;;;5057677;28;20556;-65
2023/03/06 12:35:16;;;;;;;18.65;10.50;;;3.00;99.90;;;;;;5059368;28;20570;-65
2023/03/06 12:37:58;;;;;;;18.70;10.77;;;3.00;99.90;;;;;;5054880;28;20504;-65
2023/03/06 12:40:45;;;;;;;21.63;12.05;;;3.00;99.90;;;;;;5055030;28;20547;-66
2023/03/06 12:43:43;;;;;;;24.90;11.05;;;3.00;99.90;;;;;;5057175;28;20033;-65
2023/03/06 12:46:14;;;;;;;19.67;10.70;;;3.00;99.90;;;;;;5059008;28;20056;-64
2023/03/06 12:48:42;;;;;;;20.80;11.07;;;2.80;99.90;;;;;;5053258;28;20037;-65